Time;durP1;ratioP1;P1;durP2;ratioP2;P2;SDS_P1;SDS_P2;PMS_P1;PMS_P2;Temp;Humidity;BMP_temperature;BMP_pressure;BME280_temperature;BME280_humidity;BME280_pressure;Samples;Min_cycle;Max_cycle;Signal;HPM_P1;HPM_P2
2022/05/21 00:01:26;;;;;;;8.10;4.68;;;10.50;99.90;;;;;;5054758;28;20045;-65
2022/05/21 00:03:52;;;;;;;7.90;5.75;;;10.50;99.90;;;;;;5074337;28;20106;-65
2022/05/21 00:06:19;;;;;;;9.00;5.32;;;10.50;99.90;;;;;;5054703;28;20125;-65
2022/05/21 00:08:45;;;;;;;9.52;6.10;;;10.50;99.90;;;;;;5073928;28;20127;-65
2022/05/21 00:11:10;;;;;;;9.15;6.90;;;10.50;99.90;;;;;;5073549;28;20128;-65
2022/05/21 00:13:36;;;;;;;11.75;6.97;;;10.50;99.90;;;;;;5054236;28;20512;-66
2022/05/21 00:16:02;;;;;;;13.32;8.18;;;10.50;99.90;;;;;;5055380;28;20060;-67
2022/05/21 00:18:27;;;;;;;13.10;9.82;;;10.50;99.90;;;;;;5073844;28;20049;-65
2022/05/21 00:20:53;;;;;;;14.60;9.38;;;10.40;99.90;;;;;;5073640;28;20110;-66
2022/05/21 00:23:29;;;;;;;12.85;9.93;;;10.50;99.90;;;;;;5073431;28;20056;-66
2022/05/21 00:26:03;;;;;;;19.90;11.63;;;10.50;99.90;;;;;;5073248;28;20404;-66
2022/05/21 00:28:29;;;;;;;17.65;11.82;;;10.50;99.90;;;;;;5054271;28;20075;-65
2022/05/21 00:30:56;;;;;;;22.33;12.18;;;10.50;99.90;;;;;;5073489;28;20445;-65
2022/05/21 00:33:22;;;;;;;16.60;12.10;;;10.50;99.90;;;;;;5054866;28;20075;-65
2022/05/21 00:35:49;;;;;;;24.25;14.13;;;10.50;99.90;;;;;;5072905;28;20052;-66
2022/05/21 00:38:15;;;;;;;19.48;14.25;;;10.50;99.90;;;;;;5072909;28;20504;-65
2022/05/21 00:40:40;;;;;;;21.25;15.57;;;10.60;99.90;;;;;;5072556;28;20165;-65
2022/05/21 00:43:07;;;;;;;24.98;15.55;;;10.60;99.90;;;;;;5055376;28;20048;-66
2022/05/21 00:45:33;;;;;;;25.92;16.35;;;10.70;99.90;;;;;;5055109;28;20053;-65
2022/05/21 00:47:59;;;;;;;21.55;14.82;;;10.70;99.90;;;;;;5054041;28;20114;-65
2022/05/21 00:50:28;;;;;;;28.33;16.60;;;10.70;99.90;;;;;;5053565;28;20091;-65
2022/05/21 00:52:54;;;;;;;28.13;17.73;;;10.80;99.90;;;;;;5073302;28;20055;-66
2022/05/21 00:55:29;;;;;;;23.52;15.82;;;10.90;99.90;;;;;;5073314;28;20460;-65
2022/05/21 01:00:44;;;;;;;26.95;17.20;;;11.00;99.90;;;;;;5072219;28;20052;-65
2022/05/21 01:03:12;;;;;;;30.90;18.15;;;10.90;99.90;;;;;;5055263;28;20330;-66
2022/05/21 01:05:38;;;;;;;29.10;18.75;;;10.90;99.90;;;;;;5072108;28;20053;-66
2022/05/21 01:08:05;;;;;;;27.40;18.13;;;10.90;99.90;;;;;;5054262;28;20056;-65
2022/05/21 01:10:40;;;;;;;30.35;19.05;;;10.90;99.90;;;;;;5071840;28;20898;-65
2022/05/21 01:13:09;;;;;;;29.98;19.73;;;11.00;99.90;;;;;;5053924;28;20485;-66
2022/05/21 01:15:39;;;;;;;34.67;20.50;;;11.00;99.90;;;;;;5072555;28;20151;-66
2022/05/21 01:18:07;;;;;;;37.22;21.63;;;11.00;99.90;;;;;;5072444;28;20497;-66
2022/05/21 01:20:44;;;;;;;33.15;20.83;;;11.10;99.90;;;;;;5072817;28;20048;-65
2022/05/21 01:23:11;;;;;;;36.80;21.40;;;11.10;99.90;;;;;;5054242;28;20067;-66
2022/05/21 01:25:38;;;;;;;36.78;21.70;;;11.10;99.90;;;;;;5072918;28;20078;-66
2022/05/21 01:28:06;;;;;;;32.20;21.17;;;11.20;99.90;;;;;;5054476;28;20100;-66
2022/05/21 01:30:40;;;;;;;36.00;19.98;;;11.30;99.90;;;;;;5072756;28;20392;-66
2022/05/21 01:33:09;;;;;;;34.10;20.02;;;11.30;99.90;;;;;;5072503;28;20064;-66
2022/05/21 01:35:35;;;;;;;33.78;20.65;;;11.30;99.90;;;;;;5053599;28;20068;-66
2022/05/21 01:38:02;;;;;;;38.45;20.55;;;11.40;99.90;;;;;;5054697;28;20125;-66
2022/05/21 01:40:28;;;;;;;35.17;21.40;;;11.40;99.90;;;;;;5054327;28;20127;-66
2022/05/21 01:45:38;;;;;;;31.05;20.83;;;11.40;99.90;;;;;;5072176;28;20136;-65
2022/05/21 01:48:04;;;;;;;30.33;20.25;;;11.50;99.90;;;;;;5037698;28;20088;-66
2022/05/21 01:50:30;;;;;;;35.83;21.08;;;11.50;99.90;;;;;;5067350;28;20053;-67
2022/05/21 01:52:57;;;;;;;33.28;22.00;;;11.50;99.90;;;;;;5037312;28;20084;-67
2022/05/21 01:55:23;;;;;;;31.45;22.98;;;11.60;99.90;;;;;;5075536;28;20049;-65
2022/05/21 01:57:48;;;;;;;31.05;22.02;;;11.60;99.90;;;;;;5076499;28;20064;-67
2022/05/21 02:00:15;;;;;;;32.40;22.52;;;11.60;99.90;;;;;;5075045;28;20044;-66
2022/05/21 02:02:41;;;;;;;39.80;23.58;;;11.60;99.90;;;;;;5076043;28;20067;-65
2022/05/21 02:05:07;;;;;;;35.20;22.90;;;11.60;99.90;;;;;;5058274;28;20131;-66
2022/05/21 02:07:34;;;;;;;35.50;22.98;;;11.60;99.90;;;;;;5058184;28;20102;-66
2022/05/21 02:10:00;;;;;;;34.35;23.00;;;11.60;99.90;;;;;;5058042;28;20118;-66
2022/05/21 02:12:27;;;;;;;34.45;23.75;;;11.70;99.90;;;;;;5058290;28;20061;-65
2022/05/21 02:14:54;;;;;;;33.88;23.05;;;11.70;99.90;;;;;;5075363;28;20198;-66
2022/05/21 02:17:21;;;;;;;36.10;25.10;;;11.70;99.90;;;;;;5075647;28;20063;-65
2022/05/21 02:19:46;;;;;;;39.90;26.05;;;11.70;99.90;;;;;;5058039;28;20492;-65
2022/05/21 02:22:12;;;;;;;34.78;24.50;;;11.80;99.90;;;;;;5075586;28;20059;-66
2022/05/21 02:24:37;;;;;;;35.85;23.88;;;11.80;99.90;;;;;;5057122;28;20064;-65
2022/05/21 02:27:03;;;;;;;38.45;23.63;;;11.80;99.90;;;;;;5074544;28;20044;-65
2022/05/21 02:29:29;;;;;;;39.17;24.20;;;11.80;99.90;;;;;;5075831;28;20391;-66
2022/05/21 02:31:54;;;;;;;35.72;24.75;;;11.90;99.90;;;;;;5056140;28;20131;-66
2022/05/21 02:34:20;;;;;;;35.83;24.35;;;11.90;99.90;;;;;;5058487;28;20077;-65
2022/05/21 02:39:30;;;;;;;32.90;24.25;;;11.90;99.90;;;;;;5042514;28;20049;-66
2022/05/21 02:41:58;;;;;;;31.95;24.00;;;11.90;99.90;;;;;;5074802;28;20128;-65
2022/05/21 02:44:24;;;;;;;35.83;25.38;;;11.90;99.90;;;;;;5075356;28;20048;-66
2022/05/21 02:46:51;;;;;;;37.28;24.67;;;12.00;99.90;;;;;;5074599;28;20067;-66
2022/05/21 02:49:16;;;;;;;33.33;23.77;;;12.00;99.90;;;;;;5056681;28;20366;-66
2022/05/21 02:51:42;;;;;;;37.05;23.88;;;12.00;99.90;;;;;;5075597;28;20062;-66
2022/05/21 02:54:09;;;;;;;34.55;25.58;;;12.00;99.90;;;;;;5057589;28;20124;-66
2022/05/21 02:56:36;;;;;;;37.88;23.02;;;12.00;99.90;;;;;;5074863;28;20048;-65
2022/05/21 02:59:06;;;;;;;33.58;24.17;;;12.00;99.90;;;;;;5075410;28;20140;-65
2022/05/21 03:01:33;;;;;;;37.83;24.15;;;12.00;99.90;;;;;;5074544;28;20089;-66
2022/05/21 03:04:00;;;;;;;35.88;23.17;;;12.10;99.90;;;;;;5055254;28;20415;-65
2022/05/21 03:06:25;;;;;;;34.72;23.88;;;12.10;99.90;;;;;;5074924;28;20072;-65
2022/05/21 03:11:35;;;;;;;33.88;22.73;;;12.10;99.90;;;;;;5074164;28;20102;-65
2022/05/21 03:14:01;;;;;;;35.65;22.23;;;12.10;99.90;;;;;;5075278;28;20056;-65
2022/05/21 03:16:26;;;;;;;36.22;21.85;;;12.10;99.90;;;;;;5056149;28;20109;-65
2022/05/21 03:18:52;;;;;;;35.95;22.67;;;11.90;99.90;;;;;;5074237;28;20080;-65
2022/05/21 03:21:18;;;;;;;31.00;21.60;;;12.10;99.90;;;;;;5074884;28;20049;-65
2022/05/21 03:23:43;;;;;;;36.40;23.17;;;12.10;99.90;;;;;;5056892;28;20048;-65
2022/05/21 03:26:09;;;;;;;32.58;20.63;;;12.10;99.90;;;;;;5055986;28;20135;-65
2022/05/21 03:28:34;;;;;;;31.13;21.38;;;12.10;99.90;;;;;;5074464;28;20063;-66
2022/05/21 03:31:02;;;;;;;33.75;20.77;;;12.20;99.90;;;;;;5056750;28;20421;-65
2022/05/21 03:33:27;;;;;;;33.15;19.42;;;12.20;99.90;;;;;;5073504;28;20059;-65
2022/05/21 03:35:53;;;;;;;31.42;19.50;;;12.20;99.90;;;;;;5074461;28;20123;-66
2022/05/21 03:38:19;;;;;;;30.27;19.90;;;12.20;99.90;;;;;;5056257;28;20424;-66
2022/05/21 03:40:44;;;;;;;27.75;18.35;;;12.00;99.90;;;;;;5074606;28;20040;-65
2022/05/21 03:43:10;;;;;;;31.92;18.30;;;12.20;99.90;;;;;;5073757;28;20053;-65
2022/05/21 03:45:36;;;;;;;27.48;17.52;;;12.30;99.90;;;;;;5056575;28;20052;-65
2022/05/21 03:48:05;;;;;;;28.08;17.38;;;12.30;99.90;;;;;;5054342;28;20055;-65
2022/05/21 03:50:32;;;;;;;25.70;15.05;;;12.30;99.90;;;;;;5074270;28;20041;-65
2022/05/21 03:53:01;;;;;;;23.92;15.15;;;12.30;99.90;;;;;;5074166;28;20057;-65
2022/05/21 03:55:27;;;;;;;21.65;14.88;;;12.30;99.90;;;;;;5074186;28;20056;-65
2022/05/21 03:57:53;;;;;;;22.60;13.32;;;12.40;99.90;;;;;;5054795;28;20136;-66
2022/05/21 04:00:19;;;;;;;26.05;14.00;;;12.40;99.90;;;;;;5074339;28;20135;-66
2022/05/21 04:02:46;;;;;;;22.55;12.73;;;12.40;99.90;;;;;;5073542;28;20060;-66
2022/05/21 04:05:13;;;;;;;20.85;13.23;;;12.50;99.90;;;;;;5073848;28;20044;-65
2022/05/21 04:07:39;;;;;;;21.38;12.77;;;12.50;99.90;;;;;;5055567;28;20063;-66
2022/05/21 04:10:06;;;;;;;25.17;12.65;;;12.60;99.90;;;;;;5073676;28;20346;-65
2022/05/21 04:12:32;;;;;;;19.83;11.52;;;12.60;99.90;;;;;;5072289;28;20056;-65
2022/05/21 04:14:58;;;;;;;24.45;11.68;;;12.60;99.90;;;;;;5055749;28;20055;-66
2022/05/21 04:17:23;;;;;;;21.70;10.63;;;12.60;99.90;;;;;;5054873;28;20052;-66
2022/05/21 04:19:49;;;;;;;17.67;10.73;;;12.60;99.90;;;;;;5073679;28;20136;-66
2022/05/21 04:22:14;;;;;;;23.63;11.30;;;12.60;99.90;;;;;;5073522;28;20052;-65
2022/05/21 04:24:40;;;;;;;19.50;9.50;;;12.70;99.90;;;;;;5073678;28;20544;-65
2022/05/21 04:27:07;;;;;;;20.30;8.68;;;12.70;99.90;;;;;;5054494;28;20126;-65
2022/05/21 04:29:34;;;;;;;18.35;8.52;;;12.70;99.90;;;;;;5054168;28;20088;-65
2022/05/21 04:32:00;;;;;;;20.48;7.70;;;12.70;99.90;;;;;;5072731;28;20071;-66
2022/05/21 04:34:25;;;;;;;15.68;6.78;;;12.70;99.90;;;;;;5055258;28;20136;-65
2022/05/21 04:36:51;;;;;;;17.30;6.43;;;12.80;99.90;;;;;;5073146;28;20403;-65
2022/05/21 04:39:17;;;;;;;16.92;5.50;;;12.80;99.90;;;;;;5055382;28;20044;-65
2022/05/21 04:41:42;;;;;;;17.88;4.80;;;12.80;99.90;;;;;;5072146;28;20101;-65
2022/05/21 04:44:09;;;;;;;17.85;4.95;;;12.80;99.90;;;;;;5055064;28;20059;-65
2022/05/21 04:46:35;;;;;;;12.23;4.45;;;12.80;99.90;;;;;;5055090;28;20118;-64
2022/05/21 04:49:01;;;;;;;16.38;4.25;;;12.90;99.90;;;;;;5055335;28;20132;-65
2022/05/21 04:51:27;;;;;;;17.23;5.03;;;12.90;99.90;;;;;;5073134;28;20056;-65
2022/05/21 04:53:53;;;;;;;12.57;3.75;;;12.90;99.90;;;;;;5055229;28;20048;-66
2022/05/21 04:56:19;;;;;;;12.77;4.05;;;12.80;99.90;;;;;;5054316;28;20053;-65
2022/05/21 04:58:44;;;;;;;14.68;4.60;;;12.80;99.90;;;;;;5073077;28;20134;-65
2022/05/21 05:01:10;;;;;;;13.80;4.32;;;12.90;99.90;;;;;;5072326;28;20044;-64
2022/05/21 05:03:36;;;;;;;15.23;4.43;;;12.90;99.90;;;;;;5054826;28;20058;-65
2022/05/21 05:06:02;;;;;;;15.88;4.78;;;12.90;99.90;;;;;;5054766;28;20137;-66
2022/05/21 05:08:27;;;;;;;15.02;4.35;;;12.90;99.90;;;;;;5054707;28;20063;-65
2022/05/21 05:10:53;;;;;;;15.65;3.88;;;13.00;99.90;;;;;;5052898;28;20049;-66
2022/05/21 05:13:19;;;;;;;18.67;3.72;;;13.00;99.90;;;;;;5055314;28;20072;-65
2022/05/21 05:15:46;;;;;;;18.05;4.55;;;13.10;99.90;;;;;;5054042;28;20057;-65
2022/05/21 05:18:15;;;;;;;15.38;3.95;;;13.10;99.90;;;;;;5054719;28;20041;-65
2022/05/21 05:20:41;;;;;;;12.98;4.00;;;13.30;99.90;;;;;;5072765;28;20056;-65
2022/05/21 05:23:07;;;;;;;16.38;4.38;;;13.30;99.90;;;;;;5054661;28;20052;-65
2022/05/21 05:25:33;;;;;;;13.40;3.90;;;13.40;99.90;;;;;;5054231;28;20140;-64
2022/05/21 05:27:59;;;;;;;14.93;4.10;;;13.50;99.90;;;;;;5053792;28;20066;-65
2022/05/21 05:30:25;;;;;;;13.80;3.97;;;13.60;99.90;;;;;;5072788;28;20057;-65
2022/05/21 05:32:51;;;;;;;13.95;3.80;;;13.60;99.90;;;;;;5053859;28;20127;-65
2022/05/21 05:35:17;;;;;;;7.28;3.20;;;13.70;99.90;;;;;;5072906;28;20123;-65
2022/05/21 05:37:43;;;;;;;12.38;3.42;;;14.20;99.90;;;;;;5053640;28;20048;-66
2022/05/21 05:40:14;;;;;;;11.98;3.67;;;14.40;99.90;;;;;;5051469;28;20412;-65
2022/05/21 05:42:41;;;;;;;11.00;3.40;;;14.40;99.90;;;;;;5048709;28;20060;-66
2022/05/21 05:45:10;;;;;;;10.77;2.88;;;14.40;99.90;;;;;;5049039;28;20112;-67
2022/05/21 05:47:37;;;;;;;10.75;2.83;;;14.40;99.90;;;;;;5066945;28;20053;-66
2022/05/21 05:50:03;;;;;;;13.48;3.17;;;14.50;99.90;;;;;;5051953;28;20097;-67
2022/05/21 05:52:29;;;;;;;9.90;3.17;;;14.50;99.90;;;;;;5053378;28;20056;-66
2022/05/21 05:54:55;;;;;;;11.63;3.17;;;14.60;99.90;;;;;;5071713;28;20048;-66
2022/05/21 05:57:23;;;;;;;10.38;3.25;;;14.60;99.90;;;;;;5070333;28;20050;-65
2022/05/21 05:59:55;;;;;;;12.07;3.22;;;14.80;99.90;;;;;;5068567;28;20059;-67
2022/05/21 06:05:18;;;;;;;12.15;3.92;;;15.70;99.90;;;;;;5052892;28;20178;-66
2022/05/21 06:07:49;;;;;;;14.20;4.45;;;15.90;99.90;;;;;;5065664;28;20045;-66
2022/05/21 06:10:18;;;;;;;8.50;2.92;;;16.00;99.90;;;;;;5035472;28;20039;-66
2022/05/21 06:12:43;;;;;;;11.18;3.17;;;16.40;99.90;;;;;;5033293;28;20048;-65
2022/05/21 06:15:10;;;;;;;10.13;3.08;;;16.90;99.90;;;;;;5070725;28;20098;-65
2022/05/21 06:17:38;;;;;;;8.85;3.05;;;16.60;99.90;;;;;;5051798;28;20422;-67
2022/05/21 06:20:05;;;;;;;11.27;2.65;;;16.90;99.90;;;;;;5035462;28;20045;-66
2022/05/21 06:22:32;;;;;;;9.55;2.70;;;17.10;99.90;;;;;;5070931;28;20056;-67
2022/05/21 06:24:58;;;;;;;11.52;2.70;;;17.00;99.90;;;;;;5071508;28;20060;-65
2022/05/21 06:27:24;;;;;;;10.88;2.60;;;16.80;99.90;;;;;;5071801;28;20056;-66
2022/05/21 06:29:49;;;;;;;8.57;2.40;;;16.40;99.90;;;;;;5036341;28;20052;-66
2022/05/21 06:32:15;;;;;;;7.65;3.22;;;16.10;99.90;;;;;;5053653;28;20135;-66
2022/05/21 06:35:07;;;;;;;8.38;2.38;;;15.80;99.90;;;;;;5071947;28;20048;-65
2022/05/21 06:37:33;;;;;;;8.15;3.20;;;15.60;99.90;;;;;;5054164;28;20057;-66
2022/05/21 06:40:00;;;;;;;9.35;2.70;;;15.60;99.90;;;;;;5055227;28;20060;-66
2022/05/21 06:42:26;;;;;;;8.80;2.90;;;15.50;99.90;;;;;;5056210;28;20059;-66
2022/05/21 06:44:59;;;;;;;9.82;2.70;;;15.40;99.90;;;;;;5056857;28;20048;-66
2022/05/21 06:47:28;;;;;;;10.65;3.13;;;15.50;99.90;;;;;;5056233;28;20147;-65
2022/05/21 06:49:55;;;;;;;10.30;2.88;;;15.60;99.90;;;;;;5050680;28;20477;-66
2022/05/21 06:52:25;;;;;;;8.13;2.95;;;15.70;99.90;;;;;;5073160;28;20549;-66
2022/05/21 06:54:51;;;;;;;11.15;2.85;;;15.70;99.90;;;;;;5072830;28;20075;-65
2022/05/21 06:57:18;;;;;;;9.80;3.25;;;15.70;99.90;;;;;;5074352;28;20400;-66
2022/05/21 06:59:44;;;;;;;11.90;2.90;;;15.60;99.90;;;;;;5056191;28;20465;-67
2022/05/21 07:02:09;;;;;;;10.38;2.53;;;15.50;99.90;;;;;;5054985;28;20051;-66
2022/05/21 07:07:44;;;;;;;9.55;3.15;;;15.60;99.90;;;;;;5054540;28;20136;-66
2022/05/21 07:10:20;;;;;;;7.32;2.63;;;15.80;99.90;;;;;;5067278;28;20493;-65
2022/05/21 07:12:46;;;;;;;8.00;2.60;;;16.00;99.90;;;;;;5074767;28;20110;-66
2022/05/21 07:15:13;;;;;;;9.63;2.85;;;16.20;99.90;;;;;;5055922;28;20044;-66
2022/05/21 07:17:39;;;;;;;7.55;2.72;;;16.30;99.90;;;;;;5039508;28;20063;-66
2022/05/21 07:20:06;;;;;;;14.18;2.60;;;16.30;99.90;;;;;;5039550;28;20048;-64
2022/05/21 07:22:33;;;;;;;7.18;3.05;;;16.10;99.90;;;;;;5055712;28;20508;-65
2022/05/21 07:25:01;;;;;;;10.25;2.70;;;16.10;99.90;;;;;;5075120;28;20049;-65
2022/05/21 07:27:26;;;;;;;10.65;2.85;;;16.10;99.90;;;;;;5073772;28;20508;-65
2022/05/21 07:29:52;;;;;;;6.95;2.75;;;16.20;99.90;;;;;;5056084;28;20066;-65
2022/05/21 07:32:20;;;;;;;8.40;2.75;;;16.30;99.90;;;;;;5055934;28;20091;-65
2022/05/21 07:34:46;;;;;;;10.18;3.22;;;16.20;99.90;;;;;;5039843;28;20053;-65
2022/05/21 07:37:12;;;;;;;7.40;2.20;;;16.10;99.90;;;;;;5055897;28;20063;-66
2022/05/21 07:39:39;;;;;;;9.55;2.92;;;16.10;99.90;;;;;;5055138;28;20053;-66
2022/05/21 07:42:05;;;;;;;6.63;2.95;;;16.10;99.90;;;;;;5055704;28;20095;-66
2022/05/21 07:44:30;;;;;;;6.35;2.25;;;16.00;99.90;;;;;;5073970;28;20059;-65
2022/05/21 07:46:56;;;;;;;8.10;2.88;;;16.00;99.90;;;;;;5055607;28;20040;-65
2022/05/21 07:49:23;;;;;;;11.50;2.28;;;16.00;99.90;;;;;;5054272;28;20074;-66
2022/05/21 07:51:49;;;;;;;7.55;2.80;;;15.90;99.90;;;;;;5073529;28;20136;-66
2022/05/21 07:54:15;;;;;;;7.80;2.22;;;15.90;99.90;;;;;;5055551;28;20083;-65
2022/05/21 07:56:40;;;;;;;10.75;2.38;;;16.00;99.90;;;;;;5073384;28;20519;-64
2022/05/21 07:59:06;;;;;;;7.07;1.60;;;16.20;99.90;;;;;;5055568;28;20048;-65
2022/05/21 08:01:31;;;;;;;7.63;1.90;;;16.20;99.90;;;;;;5039633;28;20063;-65
2022/05/21 08:03:57;;;;;;;7.07;2.20;;;16.20;99.90;;;;;;5056195;28;20048;-65
2022/05/21 08:06:22;;;;;;;5.82;1.50;;;16.10;99.90;;;;;;5055114;28;20459;-65
2022/05/21 08:08:51;;;;;;;6.72;2.42;;;16.20;99.90;;;;;;5073429;28;20068;-65
2022/05/21 08:11:17;;;;;;;5.90;1.83;;;16.40;99.90;;;;;;5072977;28;20048;-65
2022/05/21 08:13:43;;;;;;;7.45;2.53;;;16.40;99.90;;;;;;5054539;28;20123;-66
2022/05/21 08:16:09;;;;;;;6.65;2.03;;;16.40;99.90;;;;;;5070170;28;20056;-67
2022/05/21 08:18:34;;;;;;;5.03;1.58;;;16.30;99.90;;;;;;5054231;28;20048;-66
2022/05/21 08:21:00;;;;;;;6.03;2.10;;;16.20;99.90;;;;;;5056506;28;20052;-66
2022/05/21 08:28:54;;;;;;;10.43;2.25;;;16.70;99.90;;;;;;5071252;28;20074;-66
2022/05/21 08:31:20;;;;;;;8.52;2.55;;;17.00;99.90;;;;;;5069308;28;20040;-67
2022/05/21 08:33:45;;;;;;;9.40;2.17;;;17.00;99.90;;;;;;5055311;28;20048;-66
2022/05/21 08:36:11;;;;;;;9.50;2.22;;;16.90;99.90;;;;;;5055396;28;20052;-65
2022/05/21 08:38:37;;;;;;;13.20;2.15;;;16.60;99.90;;;;;;5073753;28;20132;-65
2022/05/21 08:41:11;;;;;;;6.28;1.60;;;16.50;99.90;;;;;;5055572;28;20173;-66
2022/05/21 08:43:54;;;;;;;6.10;2.00;;;16.40;99.90;;;;;;5074052;28;20060;-66
2022/05/21 08:46:36;;;;;;;5.05;1.92;;;16.40;99.90;;;;;;5038587;28;20048;-66
2022/05/21 08:49:06;;;;;;;6.15;2.22;;;16.30;99.90;;;;;;5055424;28;20041;-64
2022/05/21 08:51:39;;;;;;;7.10;2.28;;;16.30;99.90;;;;;;5055204;28;20484;-66
2022/05/21 08:54:05;;;;;;;9.45;2.05;;;16.40;99.90;;;;;;5072924;28;20091;-65
2022/05/21 08:56:41;;;;;;;9.57;2.20;;;16.50;99.90;;;;;;5072316;28;20098;-70
2022/05/21 08:59:08;;;;;;;6.78;2.00;;;16.70;99.90;;;;;;5040602;28;20064;-66
2022/05/21 09:01:37;;;;;;;6.10;1.67;;;16.60;99.90;;;;;;5071811;28;20041;-65
2022/05/21 09:04:03;;;;;;;7.00;2.10;;;16.60;99.90;;;;;;5054754;28;20412;-66
2022/05/21 09:06:34;;;;;;;11.43;2.00;;;16.80;99.90;;;;;;5054503;28;20056;-65
2022/05/21 09:09:14;;;;;;;4.72;1.77;;;17.10;99.90;;;;;;5073078;28;20056;-65
2022/05/21 09:11:57;;;;;;;8.90;1.92;;;17.50;99.90;;;;;;5072933;28;20052;-68
2022/05/21 09:14:30;;;;;;;8.05;1.70;;;17.80;99.90;;;;;;5072397;28;20052;-68
2022/05/21 09:16:56;;;;;;;8.57;2.05;;;18.00;99.90;;;;;;5071692;28;20036;-65
2022/05/21 09:19:33;;;;;;;8.93;2.15;;;18.00;99.90;;;;;;5072449;28;20039;-66
2022/05/21 09:22:25;;;;;;;3.45;1.60;;;17.90;99.90;;;;;;5072476;28;20048;-65
2022/05/21 09:24:55;;;;;;;5.30;1.50;;;17.70;99.90;;;;;;5072487;28;20059;-65
2022/05/21 09:27:33;;;;;;;4.88;1.83;;;17.60;99.90;;;;;;5072060;28;20052;-65
2022/05/21 09:30:26;;;;;;;6.38;1.70;;;17.30;99.90;;;;;;5071857;28;20132;-65
2022/05/21 09:32:57;;;;;;;9.23;2.17;;;17.20;99.90;;;;;;5071903;28;20060;-65
2022/05/21 09:35:26;;;;;;;3.63;1.40;;;17.10;99.90;;;;;;5051840;28;20102;-66
2022/05/21 09:37:52;;;;;;;6.38;2.05;;;17.00;99.90;;;;;;5071593;28;20060;-65
2022/05/21 09:40:25;;;;;;;5.78;1.98;;;17.00;99.90;;;;;;5050336;28;20056;-66
2022/05/21 09:45:36;;;;;;;4.57;1.40;;;17.20;99.90;;;;;;5071117;28;20064;-66
2022/05/21 09:48:08;;;;;;;5.50;1.50;;;17.10;99.90;;;;;;5054238;28;20470;-66
2022/05/21 09:50:53;;;;;;;7.97;2.20;;;17.30;99.90;;;;;;5036887;28;20056;-65
2022/05/21 09:53:27;;;;;;;9.00;1.90;;;17.10;99.90;;;;;;5070697;28;20056;-66
2022/05/21 09:55:57;;;;;;;8.20;2.33;;;17.00;99.90;;;;;;5070329;28;20044;-66
2022/05/21 09:58:23;;;;;;;6.50;1.80;;;17.10;99.90;;;;;;5071534;28;20078;-65
2022/05/21 10:00:54;;;;;;;4.85;1.60;;;16.90;99.90;;;;;;5070793;28;20049;-65
2022/05/21 10:03:40;;;;;;;6.25;1.48;;;16.90;99.90;;;;;;5037381;28;20052;-67
2022/05/21 10:06:31;;;;;;;5.80;1.50;;;16.80;99.90;;;;;;5072003;28;20084;-66
2022/05/21 10:12:04;;;;;;;6.55;1.67;;;17.10;99.90;;;;;;5067419;28;20053;-64
2022/05/21 10:14:48;;;;;;;7.18;2.03;;;17.40;99.90;;;;;;5072469;28;20080;-65
2022/05/21 10:17:26;;;;;;;5.25;1.63;;;17.50;99.90;;;;;;5057127;28;20045;-65
2022/05/21 10:20:12;;;;;;;6.47;1.58;;;17.60;99.90;;;;;;5075979;28;20060;-65
2022/05/21 10:22:50;;;;;;;4.53;1.50;;;17.60;99.90;;;;;;5058132;28;20499;-67
2022/05/21 10:25:21;;;;;;;4.30;1.58;;;17.50;99.90;;;;;;5054554;28;20055;-64
2022/05/21 10:28:10;;;;;;;5.90;1.48;;;17.30;99.90;;;;;;5074622;28;20389;-66
2022/05/21 10:31:04;;;;;;;10.38;1.80;;;17.20;99.90;;;;;;5055560;28;20125;-66
2022/05/21 10:34:04;;;;;;;7.05;1.50;;;17.20;99.90;;;;;;5073691;28;20126;-66
2022/05/21 10:36:53;;;;;;;4.30;1.77;;;17.40;99.90;;;;;;5074995;28;20053;-65
2022/05/21 10:39:43;;;;;;;6.88;1.52;;;17.60;99.90;;;;;;5058036;28;20139;-66
2022/05/21 10:42:30;;;;;;;6.63;1.30;;;17.80;99.90;;;;;;5057420;28;20143;-66
2022/05/21 10:45:30;;;;;;;5.57;1.65;;;18.10;99.90;;;;;;5075946;28;20063;-65
2022/05/21 10:48:46;;;;;;;4.97;1.23;;;18.10;99.90;;;;;;5073586;28;20489;-64
2022/05/21 10:51:22;;;;;;;5.90;1.40;;;18.10;99.90;;;;;;5002000;28;20418;-65
2022/05/21 10:54:04;;;;;;;5.38;1.30;;;18.40;99.90;;;;;;5075714;28;20106;-65
2022/05/21 10:56:45;;;;;;;5.17;1.30;;;18.50;99.90;;;;;;5075331;28;20396;-66
2022/05/21 10:59:13;;;;;;;4.40;1.30;;;18.50;99.90;;;;;;5075396;28;20044;-64
2022/05/21 11:02:20;;;;;;;5.07;1.30;;;18.60;99.90;;;;;;5056107;28;20507;-66
2022/05/21 11:05:23;;;;;;;6.90;1.15;;;18.60;99.90;;;;;;5074664;28;20508;-65
2022/05/21 11:08:02;;;;;;;5.60;1.40;;;18.90;99.90;;;;;;5056888;28;20094;-65
2022/05/21 11:10:37;;;;;;;6.07;1.40;;;19.20;99.90;;;;;;5075239;28;20066;-64
2022/05/21 11:13:17;;;;;;;4.32;1.48;;;19.20;99.90;;;;;;5057238;28;20476;-65
2022/05/21 11:15:56;;;;;;;4.32;1.23;;;19.30;99.90;;;;;;5056070;28;20049;-66
2022/05/21 11:18:43;;;;;;;3.92;1.10;;;19.30;99.90;;;;;;5075175;28;20056;-64
2022/05/21 11:21:21;;;;;;;7.07;1.40;;;19.30;99.90;;;;;;5057056;28;20110;-64
2022/05/21 11:24:24;;;;;;;2.67;1.08;;;19.50;99.90;;;;;;5056322;28;20092;-67
2022/05/21 11:26:52;;;;;;;;;;;19.80;93.60;;;;;;5075332;28;20061;-67
2022/05/21 11:29:30;;;;;;;5.30;1.08;;;19.90;99.90;;;;;;5057528;28;20343;-66
2022/05/21 11:37:38;;;;;;;4.18;1.17;;;19.80;99.90;;;;;;5056747;28;20537;-66
2022/05/21 11:40:07;;;;;;;2.08;0.93;;;19.70;99.90;;;;;;5056357;28;20063;-65
2022/05/21 11:42:34;;;;;;;3.85;0.80;;;19.70;99.90;;;;;;5050433;28;20045;-65
2022/05/21 11:45:08;;;;;;;4.00;0.88;;;19.60;99.90;;;;;;5055625;28;20054;-66
2022/05/21 11:47:48;;;;;;;3.45;0.98;;;19.40;93.40;;;;;;5053699;28;20113;-63
2022/05/21 11:50:30;;;;;;;3.00;0.80;;;19.20;99.90;;;;;;5071847;28;20044;-65
2022/05/21 11:53:09;;;;;;;5.65;1.10;;;19.10;99.90;;;;;;5035127;28;20049;-65
2022/05/21 11:56:13;;;;;;;5.18;1.20;;;19.00;99.90;;;;;;5054380;28;20044;-66
2022/05/21 11:59:00;;;;;;;4.57;1.33;;;19.10;99.90;;;;;;4996003;28;20534;-66
2022/05/21 12:01:41;;;;;;;8.90;1.50;;;19.10;99.90;;;;;;5015555;28;20042;-65
2022/05/21 12:04:21;;;;;;;3.92;1.40;;;19.30;99.90;;;;;;5024978;28;20410;-65
2022/05/21 12:06:47;;;;;;;4.15;1.13;;;19.20;99.90;;;;;;5071341;28;20047;-66
2022/05/21 12:09:23;;;;;;;6.00;1.60;;;19.10;99.90;;;;;;5074406;28;20052;-66
2022/05/21 12:11:49;;;;;;;5.00;1.30;;;19.10;99.90;;;;;;5056148;28;20057;-66
2022/05/21 12:14:22;;;;;;;4.65;1.10;;;19.10;99.90;;;;;;5074135;28;20052;-66
2022/05/21 12:16:56;;;;;;;5.95;1.88;;;19.20;99.90;;;;;;5073129;28;20045;-65
2022/05/21 12:19:44;;;;;;;4.53;1.20;;;19.20;99.90;;;;;;5056260;28;20243;-67
2022/05/21 12:22:09;;;;;;;6.00;1.40;;;19.20;99.90;;;;;;5053530;28;20150;-65
2022/05/21 12:24:38;;;;;;;3.85;0.80;;;19.20;99.90;;;;;;5054699;28;20091;-65
2022/05/21 12:27:22;;;;;;;5.00;1.00;;;19.20;99.90;;;;;;5052816;28;20063;-64
2022/05/21 12:29:58;;;;;;;3.85;1.23;;;19.00;99.90;;;;;;5053175;28;20048;-66
2022/05/21 12:32:24;;;;;;;4.25;1.10;;;18.90;99.90;;;;;;5054793;28;20492;-65
2022/05/21 12:35:24;;;;;;;6.72;1.42;;;18.90;99.90;;;;;;5072030;28;20123;-66
2022/05/21 12:38:22;;;;;;;2.70;1.13;;;19.00;99.90;;;;;;5073356;28;20396;-67
2022/05/21 12:41:15;;;;;;;2.70;1.00;;;19.10;98.80;;;;;;5047906;28;20525;-65
2022/05/21 12:43:52;;;;;;;3.90;1.50;;;19.10;99.90;;;;;;5073399;28;20127;-67
2022/05/21 12:46:32;;;;;;;3.55;1.50;;;19.20;99.90;;;;;;5072781;28;20056;-66
2022/05/21 12:49:03;;;;;;;5.57;1.15;;;19.20;99.90;;;;;;5071974;28;20499;-65
2022/05/21 12:51:48;;;;;;;4.47;1.48;;;19.30;99.90;;;;;;5053891;28;20060;-65
2022/05/21 12:54:20;;;;;;;3.80;1.00;;;19.40;99.90;;;;;;5070107;28;20059;-65
2022/05/21 12:56:47;;;;;;;3.90;1.10;;;19.40;99.90;;;;;;5054530;28;20060;-64
2022/05/21 12:59:33;;;;;;;3.58;0.90;;;19.40;99.90;;;;;;5070231;28;20507;-64
2022/05/21 13:02:19;;;;;;;3.47;1.17;;;19.30;99.90;;;;;;5071628;28;20049;-65
2022/05/21 13:04:49;;;;;;;2.85;1.08;;;19.50;99.90;;;;;;5072328;28;20047;-65
2022/05/21 13:07:17;;;;;;;4.25;1.33;;;19.70;99.90;;;;;;5029005;28;20040;-64
2022/05/21 13:10:00;;;;;;;4.55;1.10;;;20.00;99.90;;;;;;5070186;28;20048;-65
2022/05/21 13:12:33;;;;;;;3.40;1.15;;;20.00;99.90;;;;;;5050109;28;20049;-66
2022/05/21 13:15:07;;;;;;;3.70;1.02;;;20.10;99.90;;;;;;5046280;28;20405;-65
2022/05/21 13:17:45;;;;;;;3.10;1.05;;;20.10;99.90;;;;;;5070497;28;20048;-65
2022/05/21 13:20:11;;;;;;;5.85;1.83;;;20.20;99.90;;;;;;5070860;28;20094;-66
2022/05/21 13:23:04;;;;;;;8.10;1.33;;;20.10;99.90;;;;;;5034255;28;20465;-66
2022/05/21 13:25:29;;;;;;;;;;;20.00;99.90;;;;;;5054391;28;20393;-66
2022/05/21 13:27:56;;;;;;;4.78;1.30;;;19.40;92.30;;;;;;5048404;28;19928;-65
2022/05/21 13:30:27;;;;;;;4.97;1.33;;;19.30;99.90;;;;;;5068465;28;20135;-68